sensor_id;sensor_type;location;lat;lon;timestamp;P1;durP1;ratioP1;P2;durP2;ratioP2
68375;SDS011;55318;52.068;5.188;2023-11-21T00:01:09;14.6;;;7.1;;
68375;SDS011;55318;52.068;5.188;2023-11-21T00:02:45;10.7;;;5.4;;
68375;SDS011;55318;52.068;5.188;2023-11-21T00:04:22;13.5;;;6.1;;
68375;SDS011;55318;52.068;5.188;2023-11-21T00:07:35;10.8;;;5.3;;
68375;SDS011;55318;52.068;5.188;2023-11-21T00:09:11;11.3;;;5.7;;
68375;SDS011;55318;52.068;5.188;2023-11-21T00:10:47;11.0;;;6.2;;
68375;SDS011;55318;52.068;5.188;2023-11-21T00:13:59;12.0;;;5.9;;
68375;SDS011;55318;52.068;5.188;2023-11-21T00:15:35;11.4;;;6.1;;
68375;SDS011;55318;52.068;5.188;2023-11-21T00:17:11;11.4;;;6.2;;
68375;SDS011;55318;52.068;5.188;2023-11-21T00:18:47;13.2;;;6.1;;
68375;SDS011;55318;52.068;5.188;2023-11-21T00:21:59;12.3;;;5.4;;
68375;SDS011;55318;52.068;5.188;2023-11-21T00:23:35;11.6;;;5.3;;
68375;SDS011;55318;52.068;5.188;2023-11-21T00:25:12;9.6;;;5.8;;
68375;SDS011;55318;52.068;5.188;2023-11-21T00:28:25;11.3;;;5.8;;
68375;SDS011;55318;52.068;5.188;2023-11-21T00:30:02;10.7;;;4.8;;
68375;SDS011;55318;52.068;5.188;2023-11-21T00:31:39;9.9;;;4.5;;
68375;SDS011;55318;52.068;5.188;2023-11-21T00:34:51;7.0;;;4.41;;
68375;SDS011;55318;52.068;5.188;2023-11-21T00:36:27;8.1;;;4.8;;
68375;SDS011;55318;52.068;5.188;2023-11-21T00:38:03;7.1;;;4.91;;
68375;SDS011;55318;52.068;5.188;2023-11-21T00:41:15;11.8;;;5.3;;
68375;SDS011;55318;52.068;5.188;2023-11-21T00:42:51;7.4;;;4.1;;
68375;SDS011;55318;52.068;5.188;2023-11-21T00:44:28;7.8;;;4.41;;
68375;SDS011;55318;52.068;5.188;2023-11-21T00:46:04;9.31;;;4.3;;
68375;SDS011;55318;52.068;5.188;2023-11-21T00:49:16;7.0;;;3.8;;
68375;SDS011;55318;52.068;5.188;2023-11-21T00:50:52;9.21;;;4.8;;
68375;SDS011;55318;52.068;5.188;2023-11-21T00:52:28;14.3;;;5.3;;
68375;SDS011;55318;52.068;5.188;2023-11-21T00:55:41;11.2;;;5.7;;
68375;SDS011;55318;52.068;5.188;2023-11-21T00:57:17;16.7;;;6.2;;
68375;SDS011;55318;52.068;5.188;2023-11-21T00:58:53;10.8;;;5.2;;
68375;SDS011;55318;52.068;5.188;2023-11-21T01:02:06;12.1;;;6.1;;
68375;SDS011;55318;52.068;5.188;2023-11-21T01:03:42;15.2;;;5.9;;
68375;SDS011;55318;52.068;5.188;2023-11-21T01:05:18;11.9;;;6.0;;
68375;SDS011;55318;52.068;5.188;2023-11-21T01:06:54;12.4;;;5.6;;
68375;SDS011;55318;52.068;5.188;2023-11-21T01:10:06;11.8;;;5.8;;
68375;SDS011;55318;52.068;5.188;2023-11-21T01:11:43;13.0;;;6.3;;
68375;SDS011;55318;52.068;5.188;2023-11-21T01:13:19;17.41;;;6.2;;
68375;SDS011;55318;52.068;5.188;2023-11-21T01:16:31;12.1;;;5.4;;
68375;SDS011;55318;52.068;5.188;2023-11-21T01:18:07;11.6;;;5.2;;
68375;SDS011;55318;52.068;5.188;2023-11-21T01:19:43;21.3;;;6.4;;
68375;SDS011;55318;52.068;5.188;2023-11-21T01:22:56;8.71;;;5.6;;
68375;SDS011;55318;52.068;5.188;2023-11-21T01:24:32;14.0;;;6.1;;
68375;SDS011;55318;52.068;5.188;2023-11-21T01:26:08;11.2;;;5.4;;
68375;SDS011;55318;52.068;5.188;2023-11-21T01:29:20;10.0;;;5.9;;
68375;SDS011;55318;52.068;5.188;2023-11-21T01:30:56;10.5;;;5.9;;
68375;SDS011;55318;52.068;5.188;2023-11-21T01:32:32;10.7;;;6.1;;
68375;SDS011;55318;52.068;5.188;2023-11-21T01:34:08;10.9;;;5.5;;
68375;SDS011;55318;52.068;5.188;2023-11-21T01:37:21;15.5;;;6.5;;
68375;SDS011;55318;52.068;5.188;2023-11-21T01:38:57;15.4;;;5.8;;
68375;SDS011;55318;52.068;5.188;2023-11-21T01:40:33;11.2;;;6.7;;
68375;SDS011;55318;52.068;5.188;2023-11-21T01:43:45;10.0;;;5.9;;
68375;SDS011;55318;52.068;5.188;2023-11-21T01:45:21;11.1;;;5.7;;
68375;SDS011;55318;52.068;5.188;2023-11-21T01:46:57;10.3;;;5.11;;
68375;SDS011;55318;52.068;5.188;2023-11-21T01:50:12;7.0;;;3.9;;
68375;SDS011;55318;52.068;5.188;2023-11-21T01:51:51;10.3;;;5.0;;
68375;SDS011;55318;52.068;5.188;2023-11-21T01:53:27;7.5;;;4.2;;
68375;SDS011;55318;52.068;5.188;2023-11-21T01:55:04;7.1;;;4.3;;
68375;SDS011;55318;52.068;5.188;2023-11-21T01:58:21;6.3;;;4.1;;
68375;SDS011;55318;52.068;5.188;2023-11-21T01:59:58;10.7;;;4.5;;
68375;SDS011;55318;52.068;5.188;2023-11-21T02:01:37;7.7;;;4.3;;
68375;SDS011;55318;52.068;5.188;2023-11-21T02:04:49;8.0;;;4.61;;
68375;SDS011;55318;52.068;5.188;2023-11-21T02:06:25;8.2;;;3.7;;
68375;SDS011;55318;52.068;5.188;2023-11-21T02:08:01;6.0;;;3.8;;
68375;SDS011;55318;52.068;5.188;2023-11-21T02:11:13;6.9;;;4.3;;
68375;SDS011;55318;52.068;5.188;2023-11-21T02:12:49;6.4;;;4.41;;
68375;SDS011;55318;52.068;5.188;2023-11-21T02:14:27;6.1;;;4.3;;
68375;SDS011;55318;52.068;5.188;2023-11-21T02:16:04;5.7;;;4.2;;
68375;SDS011;55318;52.068;5.188;2023-11-21T02:19:17;6.7;;;4.2;;
68375;SDS011;55318;52.068;5.188;2023-11-21T02:20:55;6.2;;;4.1;;
68375;SDS011;55318;52.068;5.188;2023-11-21T02:22:32;4.91;;;3.4;;
68375;SDS011;55318;52.068;5.188;2023-11-21T02:25:51;6.2;;;3.9;;
68375;SDS011;55318;52.068;5.188;2023-11-21T02:27:27;6.2;;;3.9;;
68375;SDS011;55318;52.068;5.188;2023-11-21T02:29:03;6.1;;;3.9;;
68375;SDS011;55318;52.068;5.188;2023-11-21T02:30:39;6.8;;;3.6;;
68375;SDS011;55318;52.068;5.188;2023-11-21T02:33:52;5.11;;;3.7;;
68375;SDS011;55318;52.068;5.188;2023-11-21T02:35:28;6.1;;;4.3;;
68375;SDS011;55318;52.068;5.188;2023-11-21T02:37:04;5.7;;;3.8;;
68375;SDS011;55318;52.068;5.188;2023-11-21T02:40:16;5.7;;;3.7;;
68375;SDS011;55318;52.068;5.188;2023-11-21T02:41:52;8.71;;;4.61;;
68375;SDS011;55318;52.068;5.188;2023-11-21T02:43:28;6.4;;;4.91;;
68375;SDS011;55318;52.068;5.188;2023-11-21T02:46:42;7.5;;;4.41;;
68375;SDS011;55318;52.068;5.188;2023-11-21T02:48:18;9.0;;;5.3;;
68375;SDS011;55318;52.068;5.188;2023-11-21T02:49:54;6.7;;;4.61;;
68375;SDS011;55318;52.068;5.188;2023-11-21T02:51:31;7.0;;;3.8;;
68375;SDS011;55318;52.068;5.188;2023-11-21T02:54:44;10.0;;;5.2;;
68375;SDS011;55318;52.068;5.188;2023-11-21T02:56:20;9.81;;;5.3;;
68375;SDS011;55318;52.068;5.188;2023-11-21T02:57:56;8.0;;;5.0;;
68375;SDS011;55318;52.068;5.188;2023-11-21T03:01:08;6.6;;;4.61;;
68375;SDS011;55318;52.068;5.188;2023-11-21T03:02:44;8.6;;;5.7;;
68375;SDS011;55318;52.068;5.188;2023-11-21T03:04:20;9.0;;;5.4;;
68375;SDS011;55318;52.068;5.188;2023-11-21T03:07:32;6.9;;;4.41;;
68375;SDS011;55318;52.068;5.188;2023-11-21T03:09:09;8.6;;;4.5;;
68375;SDS011;55318;52.068;5.188;2023-11-21T03:10:45;7.0;;;4.8;;
68375;SDS011;55318;52.068;5.188;2023-11-21T03:13:57;9.0;;;5.8;;
68375;SDS011;55318;52.068;5.188;2023-11-21T03:15:33;10.1;;;6.0;;
68375;SDS011;55318;52.068;5.188;2023-11-21T03:17:09;9.31;;;4.61;;
68375;SDS011;55318;52.068;5.188;2023-11-21T03:18:45;9.81;;;5.2;;
68375;SDS011;55318;52.068;5.188;2023-11-21T03:21:57;8.4;;;5.0;;
68375;SDS011;55318;52.068;5.188;2023-11-21T03:23:33;8.71;;;5.0;;
68375;SDS011;55318;52.068;5.188;2023-11-21T03:25:09;9.1;;;5.0;;
68375;SDS011;55318;52.068;5.188;2023-11-21T03:28:22;8.81;;;5.0;;
68375;SDS011;55318;52.068;5.188;2023-11-21T03:29:58;9.21;;;5.7;;
68375;SDS011;55318;52.068;5.188;2023-11-21T03:31:34;7.2;;;4.41;;
68375;SDS011;55318;52.068;5.188;2023-11-21T03:34:53;9.6;;;5.7;;
68375;SDS011;55318;52.068;5.188;2023-11-21T03:36:31;8.81;;;5.7;;
68375;SDS011;55318;52.068;5.188;2023-11-21T03:38:07;8.2;;;5.2;;
68375;SDS011;55318;52.068;5.188;2023-11-21T03:39:45;9.21;;;5.2;;
68375;SDS011;55318;52.068;5.188;2023-11-21T03:42:57;8.5;;;5.0;;
68375;SDS011;55318;52.068;5.188;2023-11-21T03:44:33;9.21;;;5.4;;
68375;SDS011;55318;52.068;5.188;2023-11-21T03:46:10;9.6;;;5.3;;
68375;SDS011;55318;52.068;5.188;2023-11-21T03:49:22;9.4;;;6.1;;
68375;SDS011;55318;52.068;5.188;2023-11-21T03:50:58;8.2;;;5.11;;
68375;SDS011;55318;52.068;5.188;2023-11-21T03:52:34;9.9;;;5.2;;
68375;SDS011;55318;52.068;5.188;2023-11-21T03:55:46;8.81;;;5.6;;
68375;SDS011;55318;52.068;5.188;2023-11-21T03:57:22;9.6;;;6.0;;
68375;SDS011;55318;52.068;5.188;2023-11-21T03:58:58;10.7;;;5.4;;
68375;SDS011;55318;52.068;5.188;2023-11-21T04:00:34;10.8;;;6.2;;
68375;SDS011;55318;52.068;5.188;2023-11-21T04:03:47;8.6;;;5.6;;
68375;SDS011;55318;52.068;5.188;2023-11-21T04:05:23;9.6;;;5.6;;
68375;SDS011;55318;52.068;5.188;2023-11-21T04:06:59;10.0;;;5.7;;
68375;SDS011;55318;52.068;5.188;2023-11-21T04:10:11;10.1;;;5.2;;
68375;SDS011;55318;52.068;5.188;2023-11-21T04:11:47;7.5;;;5.0;;
68375;SDS011;55318;52.068;5.188;2023-11-21T04:13:23;10.21;;;4.91;;
68375;SDS011;55318;52.068;5.188;2023-11-21T04:16:35;11.2;;;6.0;;
68375;SDS011;55318;52.068;5.188;2023-11-21T04:18:11;10.5;;;5.6;;
68375;SDS011;55318;52.068;5.188;2023-11-21T04:19:47;12.0;;;5.9;;
68375;SDS011;55318;52.068;5.188;2023-11-21T04:23:00;9.1;;;6.3;;
68375;SDS011;55318;52.068;5.188;2023-11-21T04:24:36;9.71;;;6.0;;
68375;SDS011;55318;52.068;5.188;2023-11-21T04:26:12;16.61;;;7.0;;
68375;SDS011;55318;52.068;5.188;2023-11-21T04:27:48;11.3;;;6.1;;
68375;SDS011;55318;52.068;5.188;2023-11-21T04:31:00;12.8;;;7.6;;
68375;SDS011;55318;52.068;5.188;2023-11-21T04:32:36;13.2;;;6.6;;
68375;SDS011;55318;52.068;5.188;2023-11-21T04:34:12;12.5;;;6.5;;
68375;SDS011;55318;52.068;5.188;2023-11-21T04:37:24;13.5;;;6.8;;
68375;SDS011;55318;52.068;5.188;2023-11-21T04:39:01;11.7;;;6.5;;
68375;SDS011;55318;52.068;5.188;2023-11-21T04:40:37;13.6;;;6.8;;
68375;SDS011;55318;52.068;5.188;2023-11-21T04:43:49;10.8;;;6.1;;
68375;SDS011;55318;52.068;5.188;2023-11-21T04:45:25;18.2;;;6.7;;
68375;SDS011;55318;52.068;5.188;2023-11-21T04:47:01;12.4;;;6.9;;
68375;SDS011;55318;52.068;5.188;2023-11-21T04:50:14;13.5;;;6.8;;
68375;SDS011;55318;52.068;5.188;2023-11-21T04:51:50;11.8;;;6.6;;
68375;SDS011;55318;52.068;5.188;2023-11-21T04:53:26;13.3;;;6.8;;
68375;SDS011;55318;52.068;5.188;2023-11-21T04:55:03;13.3;;;7.5;;
68375;SDS011;55318;52.068;5.188;2023-11-21T04:58:16;11.6;;;6.6;;
68375;SDS011;55318;52.068;5.188;2023-11-21T04:59:53;11.2;;;6.5;;
68375;SDS011;55318;52.068;5.188;2023-11-21T05:01:29;12.3;;;6.3;;
68375;SDS011;55318;52.068;5.188;2023-11-21T05:04:42;14.2;;;6.7;;
68375;SDS011;55318;52.068;5.188;2023-11-21T05:06:18;13.8;;;7.2;;
68375;SDS011;55318;52.068;5.188;2023-11-21T05:07:54;12.4;;;7.0;;
68375;SDS011;55318;52.068;5.188;2023-11-21T05:11:06;13.2;;;6.5;;
68375;SDS011;55318;52.068;5.188;2023-11-21T05:12:42;16.2;;;7.0;;
68375;SDS011;55318;52.068;5.188;2023-11-21T05:14:19;10.6;;;6.5;;
68375;SDS011;55318;52.068;5.188;2023-11-21T05:15:55;13.7;;;6.6;;
68375;SDS011;55318;52.068;5.188;2023-11-21T05:19:08;15.8;;;7.6;;
68375;SDS011;55318;52.068;5.188;2023-11-21T05:20:44;11.7;;;6.4;;
68375;SDS011;55318;52.068;5.188;2023-11-21T05:22:20;13.4;;;7.3;;
68375;SDS011;55318;52.068;5.188;2023-11-21T05:25:33;10.0;;;6.4;;
68375;SDS011;55318;52.068;5.188;2023-11-21T05:27:09;12.6;;;6.6;;
68375;SDS011;55318;52.068;5.188;2023-11-21T05:28:45;11.0;;;6.4;;
68375;SDS011;55318;52.068;5.188;2023-11-21T05:31:58;11.7;;;5.9;;
68375;SDS011;55318;52.068;5.188;2023-11-21T05:33:34;14.9;;;6.4;;
68375;SDS011;55318;52.068;5.188;2023-11-21T05:35:10;12.4;;;5.9;;
68375;SDS011;55318;52.068;5.188;2023-11-21T05:39:58;12.2;;;6.6;;
68375;SDS011;55318;52.068;5.188;2023-11-21T05:41:34;13.6;;;6.4;;
68375;SDS011;55318;52.068;5.188;2023-11-21T05:43:10;9.6;;;6.0;;
68375;SDS011;55318;52.068;5.188;2023-11-21T05:46:22;11.1;;;5.6;;
68375;SDS011;55318;52.068;5.188;2023-11-21T05:47:58;10.9;;;5.11;;
68375;SDS011;55318;52.068;5.188;2023-11-21T05:49:34;19.91;;;6.9;;
68375;SDS011;55318;52.068;5.188;2023-11-21T05:52:47;13.7;;;5.9;;
68375;SDS011;55318;52.068;5.188;2023-11-21T05:54:23;13.8;;;5.6;;
68375;SDS011;55318;52.068;5.188;2023-11-21T05:55:59;8.5;;;5.6;;
68375;SDS011;55318;52.068;5.188;2023-11-21T05:59:14;11.6;;;6.0;;
68375;SDS011;55318;52.068;5.188;2023-11-21T06:00:50;20.0;;;6.9;;
68375;SDS011;55318;52.068;5.188;2023-11-21T06:02:26;9.4;;;5.5;;
68375;SDS011;55318;52.068;5.188;2023-11-21T06:04:02;10.3;;;4.7;;
68375;SDS011;55318;52.068;5.188;2023-11-21T06:07:14;10.7;;;5.5;;
68375;SDS011;55318;52.068;5.188;2023-11-21T06:08:51;11.8;;;6.0;;
68375;SDS011;55318;52.068;5.188;2023-11-21T06:13:39;11.9;;;6.1;;
68375;SDS011;55318;52.068;5.188;2023-11-21T06:15:15;13.2;;;6.2;;
68375;SDS011;55318;52.068;5.188;2023-11-21T06:16:51;12.4;;;5.4;;
68375;SDS011;55318;52.068;5.188;2023-11-21T06:20:03;8.9;;;4.91;;
68375;SDS011;55318;52.068;5.188;2023-11-21T06:21:44;11.2;;;6.0;;
68375;SDS011;55318;52.068;5.188;2023-11-21T06:23:21;8.9;;;5.6;;
68375;SDS011;55318;52.068;5.188;2023-11-21T06:24:57;13.4;;;6.2;;
68375;SDS011;55318;52.068;5.188;2023-11-21T06:28:10;11.9;;;6.4;;
68375;SDS011;55318;52.068;5.188;2023-11-21T06:29:46;17.8;;;6.5;;
68375;SDS011;55318;52.068;5.188;2023-11-21T06:31:22;10.21;;;6.1;;
68375;SDS011;55318;52.068;5.188;2023-11-21T06:36:10;13.5;;;6.7;;
68375;SDS011;55318;52.068;5.188;2023-11-21T06:37:46;11.1;;;6.2;;
68375;SDS011;55318;52.068;5.188;2023-11-21T06:40:58;12.0;;;6.2;;
68375;SDS011;55318;52.068;5.188;2023-11-21T06:42:34;12.3;;;6.4;;
68375;SDS011;55318;52.068;5.188;2023-11-21T06:44:10;12.4;;;5.3;;
68375;SDS011;55318;52.068;5.188;2023-11-21T06:47:23;11.4;;;6.1;;
68375;SDS011;55318;52.068;5.188;2023-11-21T06:48:59;14.8;;;6.7;;
68375;SDS011;55318;52.068;5.188;2023-11-21T06:50:35;11.5;;;6.5;;
68375;SDS011;55318;52.068;5.188;2023-11-21T06:52:11;12.4;;;6.4;;
68375;SDS011;55318;52.068;5.188;2023-11-21T06:55:23;10.0;;;5.5;;
68375;SDS011;55318;52.068;5.188;2023-11-21T06:56:59;10.21;;;5.7;;
68375;SDS011;55318;52.068;5.188;2023-11-21T06:58:35;11.4;;;5.8;;
68375;SDS011;55318;52.068;5.188;2023-11-21T07:01:50;15.4;;;6.7;;
68375;SDS011;55318;52.068;5.188;2023-11-21T07:03:27;10.9;;;5.2;;
68375;SDS011;55318;52.068;5.188;2023-11-21T07:05:03;11.3;;;5.11;;
68375;SDS011;55318;52.068;5.188;2023-11-21T07:08:16;8.31;;;4.91;;
68375;SDS011;55318;52.068;5.188;2023-11-21T07:09:52;9.31;;;4.91;;
68375;SDS011;55318;52.068;5.188;2023-11-21T07:11:28;7.5;;;4.0;;
68375;SDS011;55318;52.068;5.188;2023-11-21T07:13:04;10.3;;;4.7;;
68375;SDS011;55318;52.068;5.188;2023-11-21T07:16:16;12.7;;;4.7;;
68375;SDS011;55318;52.068;5.188;2023-11-21T07:17:52;8.9;;;4.0;;
68375;SDS011;55318;52.068;5.188;2023-11-21T07:19:28;9.71;;;5.0;;
68375;SDS011;55318;52.068;5.188;2023-11-21T07:22:41;9.1;;;4.7;;
68375;SDS011;55318;52.068;5.188;2023-11-21T07:24:17;10.21;;;6.3;;
68375;SDS011;55318;52.068;5.188;2023-11-21T07:25:53;11.3;;;5.4;;
68375;SDS011;55318;52.068;5.188;2023-11-21T07:29:05;10.21;;;5.4;;
68375;SDS011;55318;52.068;5.188;2023-11-21T07:30:42;8.71;;;5.11;;
68375;SDS011;55318;52.068;5.188;2023-11-21T07:32:18;11.2;;;6.1;;
68375;SDS011;55318;52.068;5.188;2023-11-21T07:35:31;11.3;;;4.91;;
68375;SDS011;55318;52.068;5.188;2023-11-21T07:37:07;8.5;;;5.2;;
68375;SDS011;55318;52.068;5.188;2023-11-21T07:38:43;8.71;;;5.2;;
68375;SDS011;55318;52.068;5.188;2023-11-21T07:40:20;8.71;;;5.2;;
68375;SDS011;55318;52.068;5.188;2023-11-21T07:43:32;7.6;;;4.61;;
68375;SDS011;55318;52.068;5.188;2023-11-21T07:45:08;11.9;;;5.2;;
68375;SDS011;55318;52.068;5.188;2023-11-21T07:46:44;8.5;;;4.61;;
68375;SDS011;55318;52.068;5.188;2023-11-21T07:49:56;7.9;;;4.91;;
68375;SDS011;55318;52.068;5.188;2023-11-21T07:51:32;7.3;;;4.2;;
68375;SDS011;55318;52.068;5.188;2023-11-21T07:53:08;11.1;;;4.5;;
68375;SDS011;55318;52.068;5.188;2023-11-21T07:56:20;8.31;;;4.7;;
68375;SDS011;55318;52.068;5.188;2023-11-21T07:57:56;7.7;;;4.7;;
68375;SDS011;55318;52.068;5.188;2023-11-21T07:59:33;8.0;;;3.8;;
68375;SDS011;55318;52.068;5.188;2023-11-21T08:01:09;8.0;;;4.3;;
68375;SDS011;55318;52.068;5.188;2023-11-21T08:04:21;6.1;;;3.7;;
68375;SDS011;55318;52.068;5.188;2023-11-21T08:05:57;6.6;;;3.5;;
68375;SDS011;55318;52.068;5.188;2023-11-21T08:07:34;5.6;;;3.1;;
68375;SDS011;55318;52.068;5.188;2023-11-21T08:10:46;4.7;;;3.1;;
68375;SDS011;55318;52.068;5.188;2023-11-21T08:12:22;6.6;;;3.6;;
68375;SDS011;55318;52.068;5.188;2023-11-21T08:13:58;5.6;;;3.7;;
68375;SDS011;55318;52.068;5.188;2023-11-21T08:17:11;4.8;;;2.8;;
68375;SDS011;55318;52.068;5.188;2023-11-21T08:18:47;5.5;;;3.3;;
68375;SDS011;55318;52.068;5.188;2023-11-21T08:20:23;4.2;;;2.8;;
68375;SDS011;55318;52.068;5.188;2023-11-21T08:23:35;5.5;;;2.7;;
68375;SDS011;55318;52.068;5.188;2023-11-21T08:25:11;2.7;;;1.9;;
68375;SDS011;55318;52.068;5.188;2023-11-21T08:26:47;5.2;;;2.6;;
68375;SDS011;55318;52.068;5.188;2023-11-21T08:28:23;6.3;;;3.6;;
68375;SDS011;55318;52.068;5.188;2023-11-21T08:31:35;5.11;;;3.1;;
68375;SDS011;55318;52.068;5.188;2023-11-21T08:33:12;4.2;;;2.6;;
68375;SDS011;55318;52.068;5.188;2023-11-21T08:34:48;4.41;;;2.5;;
68375;SDS011;55318;52.068;5.188;2023-11-21T08:38:02;4.0;;;2.6;;
68375;SDS011;55318;52.068;5.188;2023-11-21T08:41:14;4.2;;;3.2;;
68375;SDS011;55318;52.068;5.188;2023-11-21T08:44:26;5.4;;;3.2;;
68375;SDS011;55318;52.068;5.188;2023-11-21T08:46:02;6.1;;;3.0;;
68375;SDS011;55318;52.068;5.188;2023-11-21T08:47:38;3.8;;;2.4;;
68375;SDS011;55318;52.068;5.188;2023-11-21T08:49:14;5.0;;;2.7;;
68375;SDS011;55318;52.068;5.188;2023-11-21T08:52:27;4.0;;;2.5;;
68375;SDS011;55318;52.068;5.188;2023-11-21T08:54:03;3.9;;;2.31;;
68375;SDS011;55318;52.068;5.188;2023-11-21T08:55:39;4.41;;;2.4;;
68375;SDS011;55318;52.068;5.188;2023-11-21T08:58:51;4.61;;;2.6;;
68375;SDS011;55318;52.068;5.188;2023-11-21T09:00:27;6.0;;;2.9;;
68375;SDS011;55318;52.068;5.188;2023-11-21T09:02:03;5.4;;;3.1;;
68375;SDS011;55318;52.068;5.188;2023-11-21T09:05:15;4.7;;;2.8;;
68375;SDS011;55318;52.068;5.188;2023-11-21T09:06:51;4.41;;;3.1;;
68375;SDS011;55318;52.068;5.188;2023-11-21T09:08:27;3.9;;;2.6;;
68375;SDS011;55318;52.068;5.188;2023-11-21T09:11:41;3.6;;;2.6;;
68375;SDS011;55318;52.068;5.188;2023-11-21T09:13:17;6.1;;;3.2;;
68375;SDS011;55318;52.068;5.188;2023-11-21T09:14:53;6.0;;;2.9;;
68375;SDS011;55318;52.068;5.188;2023-11-21T09:16:29;4.0;;;3.0;;
68375;SDS011;55318;52.068;5.188;2023-11-21T09:19:41;6.3;;;3.8;;
68375;SDS011;55318;52.068;5.188;2023-11-21T09:21:17;5.7;;;3.6;;
68375;SDS011;55318;52.068;5.188;2023-11-21T09:22:53;5.9;;;3.6;;
68375;SDS011;55318;52.068;5.188;2023-11-21T09:26:05;6.0;;;3.1;;
68375;SDS011;55318;52.068;5.188;2023-11-21T09:27:41;5.6;;;3.6;;
68375;SDS011;55318;52.068;5.188;2023-11-21T09:29:18;7.7;;;3.4;;
68375;SDS011;55318;52.068;5.188;2023-11-21T09:32:30;8.0;;;4.3;;
68375;SDS011;55318;52.068;5.188;2023-11-21T09:34:06;5.2;;;3.4;;
68375;SDS011;55318;52.068;5.188;2023-11-21T09:35:42;8.1;;;3.9;;
68375;SDS011;55318;52.068;5.188;2023-11-21T09:40:30;6.2;;;4.3;;
68375;SDS011;55318;52.068;5.188;2023-11-21T09:42:08;8.81;;;4.1;;
68375;SDS011;55318;52.068;5.188;2023-11-21T09:43:46;8.1;;;3.2;;
68375;SDS011;55318;52.068;5.188;2023-11-21T09:47:08;7.9;;;4.5;;
68375;SDS011;55318;52.068;5.188;2023-11-21T09:48:50;5.6;;;3.6;;
68375;SDS011;55318;52.068;5.188;2023-11-21T09:50:27;6.1;;;3.9;;
68375;SDS011;55318;52.068;5.188;2023-11-21T09:52:04;6.0;;;4.3;;
68375;SDS011;55318;52.068;5.188;2023-11-21T09:55:25;8.0;;;4.5;;
68375;SDS011;55318;52.068;5.188;2023-11-21T09:57:03;6.8;;;4.1;;
68375;SDS011;55318;52.068;5.188;2023-11-21T09:58:40;7.2;;;4.3;;
68375;SDS011;55318;52.068;5.188;2023-11-21T10:01:54;7.3;;;4.1;;
68375;SDS011;55318;52.068;5.188;2023-11-21T10:03:31;12.6;;;4.7;;
68375;SDS011;55318;52.068;5.188;2023-11-21T10:05:11;7.2;;;3.9;;
68375;SDS011;55318;52.068;5.188;2023-11-21T10:06:47;8.1;;;3.9;;
68375;SDS011;55318;52.068;5.188;2023-11-21T10:10:00;8.31;;;4.3;;
68375;SDS011;55318;52.068;5.188;2023-11-21T10:11:39;7.8;;;4.1;;
68375;SDS011;55318;52.068;5.188;2023-11-21T10:13:16;5.6;;;3.8;;
68375;SDS011;55318;52.068;5.188;2023-11-21T10:16:33;7.3;;;3.6;;
68375;SDS011;55318;52.068;5.188;2023-11-21T10:18:10;6.3;;;3.4;;
68375;SDS011;55318;52.068;5.188;2023-11-21T10:19:47;9.5;;;4.7;;
68375;SDS011;55318;52.068;5.188;2023-11-21T10:21:24;6.6;;;3.6;;
68375;SDS011;55318;52.068;5.188;2023-11-21T10:24:37;6.1;;;3.7;;
68375;SDS011;55318;52.068;5.188;2023-11-21T10:26:13;6.5;;;3.4;;
68375;SDS011;55318;52.068;5.188;2023-11-21T10:27:49;8.0;;;4.41;;
68375;SDS011;55318;52.068;5.188;2023-11-21T10:31:06;5.5;;;3.7;;
68375;SDS011;55318;52.068;5.188;2023-11-21T10:32:42;5.8;;;3.8;;
68375;SDS011;55318;52.068;5.188;2023-11-21T10:34:19;4.41;;;3.5;;
68375;SDS011;55318;52.068;5.188;2023-11-21T10:35:56;5.6;;;3.4;;
68375;SDS011;55318;52.068;5.188;2023-11-21T10:39:09;6.1;;;3.9;;
68375;SDS011;55318;52.068;5.188;2023-11-21T10:40:50;5.4;;;3.5;;
68375;SDS011;55318;52.068;5.188;2023-11-21T10:42:27;6.0;;;3.3;;
68375;SDS011;55318;52.068;5.188;2023-11-21T10:45:39;6.6;;;4.0;;
68375;SDS011;55318;52.068;5.188;2023-11-21T10:47:16;5.5;;;3.3;;
68375;SDS011;55318;52.068;5.188;2023-11-21T10:48:52;5.6;;;3.3;;
68375;SDS011;55318;52.068;5.188;2023-11-21T10:52:04;5.8;;;3.3;;
68375;SDS011;55318;52.068;5.188;2023-11-21T10:53:40;5.0;;;3.6;;
68375;SDS011;55318;52.068;5.188;2023-11-21T10:55:17;6.5;;;2.4;;
68375;SDS011;55318;52.068;5.188;2023-11-21T10:56:56;5.5;;;2.8;;
68375;SDS011;55318;52.068;5.188;2023-11-21T11:00:12;5.7;;;3.0;;
68375;SDS011;55318;52.068;5.188;2023-11-21T11:01:51;4.5;;;2.9;;
68375;SDS011;55318;52.068;5.188;2023-11-21T11:03:28;6.0;;;3.0;;
68375;SDS011;55318;52.068;5.188;2023-11-21T11:06:41;5.9;;;2.9;;
68375;SDS011;55318;52.068;5.188;2023-11-21T11:08:18;6.0;;;2.9;;
68375;SDS011;55318;52.068;5.188;2023-11-21T11:09:57;4.8;;;3.0;;
68375;SDS011;55318;52.068;5.188;2023-11-21T11:11:34;4.8;;;3.0;;
68375;SDS011;55318;52.068;5.188;2023-11-21T11:14:47;5.9;;;3.5;;
68375;SDS011;55318;52.068;5.188;2023-11-21T11:16:24;5.11;;;3.5;;
68375;SDS011;55318;52.068;5.188;2023-11-21T11:18:00;4.91;;;3.0;;
68375;SDS011;55318;52.068;5.188;2023-11-21T11:21:18;4.8;;;3.4;;
68375;SDS011;55318;52.068;5.188;2023-11-21T11:23:22;6.4;;;3.4;;
68375;SDS011;55318;52.068;5.188;2023-11-21T11:25:14;6.5;;;4.1;;
68375;SDS011;55318;52.068;5.188;2023-11-21T11:27:06;8.31;;;3.6;;
68375;SDS011;55318;52.068;5.188;2023-11-21T11:28:53;7.8;;;4.61;;
68375;SDS011;55318;52.068;5.188;2023-11-21T11:30:41;6.9;;;3.8;;
68375;SDS011;55318;52.068;5.188;2023-11-21T11:32:30;7.5;;;4.3;;
68375;SDS011;55318;52.068;5.188;2023-11-21T11:36:03;9.21;;;4.2;;
68375;SDS011;55318;52.068;5.188;2023-11-21T11:37:44;8.2;;;4.1;;
68375;SDS011;55318;52.068;5.188;2023-11-21T11:39:27;6.2;;;3.5;;
68375;SDS011;55318;52.068;5.188;2023-11-21T11:41:05;8.1;;;4.1;;
68375;SDS011;55318;52.068;5.188;2023-11-21T11:44:46;7.7;;;3.9;;
68375;SDS011;55318;52.068;5.188;2023-11-21T11:46:40;9.4;;;4.8;;
68375;SDS011;55318;52.068;5.188;2023-11-21T11:48:22;7.4;;;4.41;;
68375;SDS011;55318;52.068;5.188;2023-11-21T11:50:01;7.0;;;4.3;;
68375;SDS011;55318;52.068;5.188;2023-11-21T11:51:39;8.0;;;4.7;;
68375;SDS011;55318;52.068;5.188;2023-11-21T11:54:51;8.4;;;4.41;;
68375;SDS011;55318;52.068;5.188;2023-11-21T11:56:29;8.2;;;5.4;;
68375;SDS011;55318;52.068;5.188;2023-11-21T11:58:07;9.0;;;5.3;;
68375;SDS011;55318;52.068;5.188;2023-11-21T12:00:06;8.31;;;4.5;;
68375;SDS011;55318;52.068;5.188;2023-11-21T12:01:45;10.3;;;5.3;;
68375;SDS011;55318;52.068;5.188;2023-11-21T12:04:58;8.71;;;5.11;;
68375;SDS011;55318;52.068;5.188;2023-11-21T12:06:35;8.6;;;4.41;;
68375;SDS011;55318;52.068;5.188;2023-11-21T12:08:11;7.5;;;4.5;;
68375;SDS011;55318;52.068;5.188;2023-11-21T12:11:28;9.0;;;5.4;;
68375;SDS011;55318;52.068;5.188;2023-11-21T12:13:06;11.8;;;4.91;;
68375;SDS011;55318;52.068;5.188;2023-11-21T12:14:44;11.6;;;5.4;;
68375;SDS011;55318;52.068;5.188;2023-11-21T12:16:21;11.3;;;4.8;;
68375;SDS011;55318;52.068;5.188;2023-11-21T12:19:33;6.8;;;4.3;;
68375;SDS011;55318;52.068;5.188;2023-11-21T12:21:09;9.71;;;5.7;;
68375;SDS011;55318;52.068;5.188;2023-11-21T12:22:46;13.4;;;5.7;;
68375;SDS011;55318;52.068;5.188;2023-11-21T12:26:00;11.5;;;5.8;;
68375;SDS011;55318;52.068;5.188;2023-11-21T12:27:36;10.4;;;6.4;;
68375;SDS011;55318;52.068;5.188;2023-11-21T12:29:12;10.21;;;5.9;;
68375;SDS011;55318;52.068;5.188;2023-11-21T12:32:24;14.1;;;7.9;;
68375;SDS011;55318;52.068;5.188;2023-11-21T12:34:00;11.6;;;5.8;;
68375;SDS011;55318;52.068;5.188;2023-11-21T12:35:36;11.2;;;6.0;;
68375;SDS011;55318;52.068;5.188;2023-11-21T12:38:49;13.4;;;6.3;;
68375;SDS011;55318;52.068;5.188;2023-11-21T12:40:25;13.4;;;6.3;;
68375;SDS011;55318;52.068;5.188;2023-11-21T12:42:02;12.8;;;7.1;;
68375;SDS011;55318;52.068;5.188;2023-11-21T12:43:39;10.9;;;5.4;;
68375;SDS011;55318;52.068;5.188;2023-11-21T12:46:56;10.7;;;6.1;;
68375;SDS011;55318;52.068;5.188;2023-11-21T12:48:32;11.7;;;5.9;;
68375;SDS011;55318;52.068;5.188;2023-11-21T12:50:08;12.0;;;6.2;;
68375;SDS011;55318;52.068;5.188;2023-11-21T12:53:21;11.2;;;6.3;;
68375;SDS011;55318;52.068;5.188;2023-11-21T12:54:57;12.4;;;6.7;;
68375;SDS011;55318;52.068;5.188;2023-11-21T12:56:33;11.8;;;6.3;;
68375;SDS011;55318;52.068;5.188;2023-11-21T12:58:14;11.9;;;6.8;;
68375;SDS011;55318;52.068;5.188;2023-11-21T13:01:26;11.3;;;6.5;;